sensor_id;sensor_type;location;lat;lon;timestamp;P1;durP1;ratioP1;P2;durP2;ratioP2
41705;SDS011;27385;51.096;17.190;2023-03-20T00:00:15;95.10;;;45.80;;
41705;SDS011;27385;51.096;17.190;2023-03-20T00:03:11;89.60;;;44.70;;
41705;SDS011;27385;51.096;17.190;2023-03-20T00:05:43;92.70;;;43.90;;
41705;SDS011;27385;51.096;17.190;2023-03-20T00:08:14;83.20;;;40.50;;
41705;SDS011;27385;51.096;17.190;2023-03-20T00:10:46;83.10;;;42.00;;
41705;SDS011;27385;51.096;17.190;2023-03-20T00:13:18;81.40;;;41.20;;
41705;SDS011;27385;51.096;17.190;2023-03-20T00:15:55;82.90;;;41.70;;
41705;SDS011;27385;51.096;17.190;2023-03-20T00:18:26;83.30;;;41.30;;
41705;SDS011;27385;51.096;17.190;2023-03-20T00:20:57;81.00;;;39.30;;
41705;SDS011;27385;51.096;17.190;2023-03-20T00:23:28;82.30;;;40.90;;
41705;SDS011;27385;51.096;17.190;2023-03-20T00:26:00;79.30;;;41.20;;
41705;SDS011;27385;51.096;17.190;2023-03-20T00:28:34;77.40;;;38.80;;
41705;SDS011;27385;51.096;17.190;2023-03-20T00:31:13;80.30;;;38.80;;
41705;SDS011;27385;51.096;17.190;2023-03-20T00:36:18;77.40;;;37.00;;
41705;SDS011;27385;51.096;17.190;2023-03-20T00:38:49;69.90;;;35.60;;
41705;SDS011;27385;51.096;17.190;2023-03-20T00:41:24;67.40;;;35.40;;
41705;SDS011;27385;51.096;17.190;2023-03-20T00:43:58;74.40;;;37.00;;
41705;SDS011;27385;51.096;17.190;2023-03-20T00:46:32;68.40;;;34.20;;
41705;SDS011;27385;51.096;17.190;2023-03-20T00:49:09;71.50;;;37.50;;
41705;SDS011;27385;51.096;17.190;2023-03-20T00:51:40;65.90;;;34.70;;
41705;SDS011;27385;51.096;17.190;2023-03-20T00:54:12;72.40;;;36.60;;
41705;SDS011;27385;51.096;17.190;2023-03-20T00:56:46;66.60;;;34.20;;
41705;SDS011;27385;51.096;17.190;2023-03-20T00:59:23;66.40;;;35.00;;
41705;SDS011;27385;51.096;17.190;2023-03-20T01:01:59;74.90;;;35.60;;
41705;SDS011;27385;51.096;17.190;2023-03-20T01:04:34;72.50;;;35.40;;
41705;SDS011;27385;51.096;17.190;2023-03-20T01:07:09;72.90;;;35.70;;
41705;SDS011;27385;51.096;17.190;2023-03-20T01:09:43;66.50;;;34.70;;
41705;SDS011;27385;51.096;17.190;2023-03-20T01:12:14;71.60;;;35.10;;
41705;SDS011;27385;51.096;17.190;2023-03-20T01:14:46;76.10;;;36.50;;
41705;SDS011;27385;51.096;17.190;2023-03-20T01:17:23;67.30;;;33.30;;
41705;SDS011;27385;51.096;17.190;2023-03-20T01:19:56;73.50;;;33.90;;
41705;SDS011;27385;51.096;17.190;2023-03-20T01:22:27;64.10;;;34.10;;
41705;SDS011;27385;51.096;17.190;2023-03-20T01:24:59;62.70;;;31.40;;
41705;SDS011;27385;51.096;17.190;2023-03-20T01:27:30;62.60;;;31.70;;
41705;SDS011;27385;51.096;17.190;2023-03-20T01:30:01;66.30;;;33.80;;
41705;SDS011;27385;51.096;17.190;2023-03-20T01:32:35;59.90;;;29.40;;
41705;SDS011;27385;51.096;17.190;2023-03-20T01:35:07;69.30;;;33.60;;
41705;SDS011;27385;51.096;17.190;2023-03-20T01:37:39;61.90;;;31.80;;
41705;SDS011;27385;51.096;17.190;2023-03-20T01:40:15;60.10;;;32.10;;
41705;SDS011;27385;51.096;17.190;2023-03-20T01:42:55;61.60;;;31.60;;
41705;SDS011;27385;51.096;17.190;2023-03-20T01:45:27;64.40;;;30.20;;
41705;SDS011;27385;51.096;17.190;2023-03-20T01:48:08;60.80;;;31.00;;
41705;SDS011;27385;51.096;17.190;2023-03-20T01:50:44;58.00;;;29.30;;
41705;SDS011;27385;51.096;17.190;2023-03-20T01:53:16;55.30;;;28.50;;
41705;SDS011;27385;51.096;17.190;2023-03-20T01:55:51;63.50;;;29.90;;
41705;SDS011;27385;51.096;17.190;2023-03-20T01:58:25;53.20;;;27.50;;
41705;SDS011;27385;51.096;17.190;2023-03-20T02:01:03;55.60;;;27.00;;
41705;SDS011;27385;51.096;17.190;2023-03-20T02:03:37;51.30;;;26.90;;
41705;SDS011;27385;51.096;17.190;2023-03-20T02:06:11;50.70;;;26.20;;
41705;SDS011;27385;51.096;17.190;2023-03-20T02:08:43;53.00;;;25.10;;
41705;SDS011;27385;51.096;17.190;2023-03-20T02:11:17;48.20;;;25.00;;
41705;SDS011;27385;51.096;17.190;2023-03-20T02:13:50;53.50;;;27.50;;
41705;SDS011;27385;51.096;17.190;2023-03-20T02:16:24;49.30;;;24.60;;
41705;SDS011;27385;51.096;17.190;2023-03-20T02:18:56;52.10;;;25.30;;
41705;SDS011;27385;51.096;17.190;2023-03-20T02:21:38;47.40;;;25.20;;
41705;SDS011;27385;51.096;17.190;2023-03-20T02:27:33;49.70;;;25.50;;
41705;SDS011;27385;51.096;17.190;2023-03-20T02:30:17;44.40;;;25.10;;
41705;SDS011;27385;51.096;17.190;2023-03-20T02:39:22;51.10;;;24.40;;
41705;SDS011;27385;51.096;17.190;2023-03-20T02:42:17;44.00;;;23.30;;
41705;SDS011;27385;51.096;17.190;2023-03-20T02:44:59;45.50;;;22.70;;
41705;SDS011;27385;51.096;17.190;2023-03-20T02:47:44;47.20;;;25.10;;
41705;SDS011;27385;51.096;17.190;2023-03-20T02:50:22;49.80;;;26.40;;
41705;SDS011;27385;51.096;17.190;2023-03-20T02:53:02;48.70;;;24.20;;
41705;SDS011;27385;51.096;17.190;2023-03-20T02:55:46;49.50;;;25.50;;
41705;SDS011;27385;51.096;17.190;2023-03-20T02:58:23;42.20;;;23.50;;
41705;SDS011;27385;51.096;17.190;2023-03-20T03:00:59;46.30;;;25.20;;
41705;SDS011;27385;51.096;17.190;2023-03-20T03:03:37;47.10;;;24.40;;
41705;SDS011;27385;51.096;17.190;2023-03-20T03:06:14;46.30;;;25.50;;
41705;SDS011;27385;51.096;17.190;2023-03-20T03:08:50;46.00;;;24.10;;
41705;SDS011;27385;51.096;17.190;2023-03-20T03:11:27;44.40;;;25.00;;
41705;SDS011;27385;51.096;17.190;2023-03-20T03:13:58;47.80;;;24.20;;
41705;SDS011;27385;51.096;17.190;2023-03-20T03:16:33;45.40;;;25.40;;
41705;SDS011;27385;51.096;17.190;2023-03-20T03:19:07;41.80;;;23.60;;
41705;SDS011;27385;51.096;17.190;2023-03-20T03:21:41;46.10;;;24.50;;
41705;SDS011;27385;51.096;17.190;2023-03-20T03:24:20;41.10;;;23.10;;
41705;SDS011;27385;51.096;17.190;2023-03-20T03:26:56;46.80;;;23.90;;
41705;SDS011;27385;51.096;17.190;2023-03-20T03:29:31;43.20;;;24.50;;
41705;SDS011;27385;51.096;17.190;2023-03-20T03:32:06;49.20;;;26.10;;
41705;SDS011;27385;51.096;17.190;2023-03-20T03:34:49;46.90;;;25.80;;
41705;SDS011;27385;51.096;17.190;2023-03-20T03:37:22;48.30;;;26.50;;
41705;SDS011;27385;51.096;17.190;2023-03-20T03:40:02;42.50;;;26.00;;
41705;SDS011;27385;51.096;17.190;2023-03-20T03:42:42;45.30;;;24.60;;
41705;SDS011;27385;51.096;17.190;2023-03-20T03:45:19;41.50;;;24.30;;
41705;SDS011;27385;51.096;17.190;2023-03-20T03:47:58;45.70;;;23.40;;
41705;SDS011;27385;51.096;17.190;2023-03-20T03:50:34;44.00;;;25.60;;
41705;SDS011;27385;51.096;17.190;2023-03-20T03:55:46;41.90;;;23.30;;
41705;SDS011;27385;51.096;17.190;2023-03-20T03:58:22;48.30;;;26.70;;
41705;SDS011;27385;51.096;17.190;2023-03-20T04:00:58;43.80;;;24.10;;
41705;SDS011;27385;51.096;17.190;2023-03-20T04:03:32;41.70;;;22.60;;
41705;SDS011;27385;51.096;17.190;2023-03-20T04:06:07;40.20;;;22.50;;
41705;SDS011;27385;51.096;17.190;2023-03-20T04:08:40;41.90;;;23.40;;
41705;SDS011;27385;51.096;17.190;2023-03-20T04:11:13;38.10;;;21.00;;
41705;SDS011;27385;51.096;17.190;2023-03-20T04:13:46;43.20;;;22.80;;
41705;SDS011;27385;51.096;17.190;2023-03-20T04:16:18;40.90;;;21.90;;
41705;SDS011;27385;51.096;17.190;2023-03-20T04:18:51;40.80;;;21.70;;
41705;SDS011;27385;51.096;17.190;2023-03-20T04:21:23;36.70;;;20.80;;
41705;SDS011;27385;51.096;17.190;2023-03-20T04:23:54;41.20;;;22.20;;
41705;SDS011;27385;51.096;17.190;2023-03-20T04:26:25;41.10;;;19.20;;
41705;SDS011;27385;51.096;17.190;2023-03-20T04:28:57;32.60;;;18.10;;
41705;SDS011;27385;51.096;17.190;2023-03-20T04:31:28;40.40;;;20.10;;
41705;SDS011;27385;51.096;17.190;2023-03-20T04:33:59;39.10;;;19.10;;
41705;SDS011;27385;51.096;17.190;2023-03-20T04:36:30;39.40;;;20.30;;
41705;SDS011;27385;51.096;17.190;2023-03-20T04:39:01;41.00;;;20.20;;
41705;SDS011;27385;51.096;17.190;2023-03-20T04:41:33;35.40;;;19.00;;
41705;SDS011;27385;51.096;17.190;2023-03-20T04:44:04;36.90;;;18.40;;
41705;SDS011;27385;51.096;17.190;2023-03-20T04:46:36;36.10;;;19.50;;
41705;SDS011;27385;51.096;17.190;2023-03-20T04:49:07;36.80;;;19.80;;
41705;SDS011;27385;51.096;17.190;2023-03-20T04:51:38;39.60;;;20.30;;
41705;SDS011;27385;51.096;17.190;2023-03-20T04:54:09;33.40;;;19.00;;
41705;SDS011;27385;51.096;17.190;2023-03-20T04:56:40;34.20;;;19.20;;
41705;SDS011;27385;51.096;17.190;2023-03-20T04:59:10;36.80;;;18.20;;
41705;SDS011;27385;51.096;17.190;2023-03-20T05:01:42;38.20;;;19.60;;
41705;SDS011;27385;51.096;17.190;2023-03-20T05:04:13;35.50;;;18.90;;
41705;SDS011;27385;51.096;17.190;2023-03-20T05:06:44;34.70;;;19.00;;
41705;SDS011;27385;51.096;17.190;2023-03-20T05:09:16;37.60;;;18.70;;
41705;SDS011;27385;51.096;17.190;2023-03-20T05:11:47;34.70;;;20.70;;
41705;SDS011;27385;51.096;17.190;2023-03-20T05:14:18;39.40;;;20.60;;
41705;SDS011;27385;51.096;17.190;2023-03-20T05:16:50;36.30;;;20.40;;
41705;SDS011;27385;51.096;17.190;2023-03-20T05:19:21;33.60;;;18.60;;
41705;SDS011;27385;51.096;17.190;2023-03-20T05:21:53;32.70;;;18.00;;
41705;SDS011;27385;51.096;17.190;2023-03-20T05:24:24;36.30;;;19.20;;
41705;SDS011;27385;51.096;17.190;2023-03-20T05:26:56;38.30;;;19.70;;
41705;SDS011;27385;51.096;17.190;2023-03-20T05:29:26;36.20;;;20.40;;
41705;SDS011;27385;51.096;17.190;2023-03-20T05:31:57;39.00;;;20.30;;
41705;SDS011;27385;51.096;17.190;2023-03-20T05:34:28;34.40;;;20.20;;
41705;SDS011;27385;51.096;17.190;2023-03-20T05:36:59;40.30;;;20.30;;
41705;SDS011;27385;51.096;17.190;2023-03-20T05:39:30;38.80;;;20.70;;
41705;SDS011;27385;51.096;17.190;2023-03-20T05:42:01;38.70;;;20.50;;
41705;SDS011;27385;51.096;17.190;2023-03-20T05:44:33;38.80;;;22.30;;
41705;SDS011;27385;51.096;17.190;2023-03-20T05:47:04;37.30;;;22.00;;
41705;SDS011;27385;51.096;17.190;2023-03-20T05:49:35;40.70;;;24.00;;
41705;SDS011;27385;51.096;17.190;2023-03-20T05:52:06;42.80;;;22.70;;
41705;SDS011;27385;51.096;17.190;2023-03-20T05:54:37;39.80;;;22.20;;
41705;SDS011;27385;51.096;17.190;2023-03-20T05:57:08;38.20;;;20.70;;
41705;SDS011;27385;51.096;17.190;2023-03-20T05:59:39;37.70;;;21.20;;
41705;SDS011;27385;51.096;17.190;2023-03-20T06:02:10;37.60;;;21.30;;
41705;SDS011;27385;51.096;17.190;2023-03-20T06:04:42;34.90;;;20.70;;
41705;SDS011;27385;51.096;17.190;2023-03-20T06:07:13;39.40;;;20.30;;
41705;SDS011;27385;51.096;17.190;2023-03-20T06:09:44;36.90;;;20.90;;
41705;SDS011;27385;51.096;17.190;2023-03-20T06:12:18;36.60;;;21.00;;
41705;SDS011;27385;51.096;17.190;2023-03-20T06:14:49;36.90;;;20.60;;
41705;SDS011;27385;51.096;17.190;2023-03-20T06:17:19;37.20;;;20.70;;
41705;SDS011;27385;51.096;17.190;2023-03-20T06:19:50;39.30;;;22.20;;
41705;SDS011;27385;51.096;17.190;2023-03-20T06:22:21;36.80;;;20.60;;
41705;SDS011;27385;51.096;17.190;2023-03-20T06:24:52;34.80;;;20.30;;
41705;SDS011;27385;51.096;17.190;2023-03-20T06:27:24;43.90;;;19.80;;
41705;SDS011;27385;51.096;17.190;2023-03-20T06:29:55;34.90;;;19.20;;
41705;SDS011;27385;51.096;17.190;2023-03-20T06:32:25;34.60;;;19.70;;
41705;SDS011;27385;51.096;17.190;2023-03-20T06:34:56;32.90;;;19.20;;
41705;SDS011;27385;51.096;17.190;2023-03-20T06:37:27;32.50;;;18.50;;
41705;SDS011;27385;51.096;17.190;2023-03-20T06:39:58;30.20;;;16.80;;
41705;SDS011;27385;51.096;17.190;2023-03-20T06:42:30;31.00;;;17.40;;
41705;SDS011;27385;51.096;17.190;2023-03-20T06:45:01;31.00;;;17.70;;
41705;SDS011;27385;51.096;17.190;2023-03-20T06:47:33;33.00;;;17.60;;
41705;SDS011;27385;51.096;17.190;2023-03-20T06:50:05;29.20;;;16.80;;
41705;SDS011;27385;51.096;17.190;2023-03-20T06:52:38;29.00;;;15.80;;
41705;SDS011;27385;51.096;17.190;2023-03-20T06:55:10;27.40;;;16.80;;
41705;SDS011;27385;51.096;17.190;2023-03-20T06:57:43;29.90;;;16.00;;
41705;SDS011;27385;51.096;17.190;2023-03-20T07:00:16;31.10;;;16.50;;
41705;SDS011;27385;51.096;17.190;2023-03-20T07:02:49;34.50;;;19.30;;
41705;SDS011;27385;51.096;17.190;2023-03-20T07:05:21;31.60;;;16.70;;
41705;SDS011;27385;51.096;17.190;2023-03-20T07:07:52;32.00;;;18.10;;
41705;SDS011;27385;51.096;17.190;2023-03-20T07:10:23;31.40;;;18.40;;
41705;SDS011;27385;51.096;17.190;2023-03-20T07:12:54;33.50;;;15.10;;
41705;SDS011;27385;51.096;17.190;2023-03-20T07:15:25;28.10;;;15.00;;
41705;SDS011;27385;51.096;17.190;2023-03-20T07:17:56;29.50;;;16.30;;
41705;SDS011;27385;51.096;17.190;2023-03-20T07:20:28;30.30;;;15.30;;
41705;SDS011;27385;51.096;17.190;2023-03-20T07:22:59;33.00;;;18.20;;
41705;SDS011;27385;51.096;17.190;2023-03-20T07:25:31;35.50;;;17.90;;
41705;SDS011;27385;51.096;17.190;2023-03-20T07:28:02;30.70;;;17.20;;
41705;SDS011;27385;51.096;17.190;2023-03-20T07:30:34;34.60;;;18.30;;
41705;SDS011;27385;51.096;17.190;2023-03-20T07:33:05;29.80;;;16.10;;
41705;SDS011;27385;51.096;17.190;2023-03-20T07:35:36;30.00;;;16.00;;
41705;SDS011;27385;51.096;17.190;2023-03-20T07:38:07;28.20;;;14.90;;
41705;SDS011;27385;51.096;17.190;2023-03-20T07:40:39;28.60;;;14.80;;
41705;SDS011;27385;51.096;17.190;2023-03-20T07:43:10;27.50;;;14.20;;
41705;SDS011;27385;51.096;17.190;2023-03-20T07:45:41;29.00;;;14.40;;
41705;SDS011;27385;51.096;17.190;2023-03-20T07:48:12;31.10;;;16.70;;
41705;SDS011;27385;51.096;17.190;2023-03-20T07:50:44;29.70;;;16.60;;
41705;SDS011;27385;51.096;17.190;2023-03-20T07:53:15;31.30;;;15.80;;
41705;SDS011;27385;51.096;17.190;2023-03-20T07:55:46;42.10;;;21.60;;
41705;SDS011;27385;51.096;17.190;2023-03-20T07:58:17;47.40;;;24.20;;
41705;SDS011;27385;51.096;17.190;2023-03-20T08:00:49;43.30;;;20.60;;
41705;SDS011;27385;51.096;17.190;2023-03-20T08:03:20;33.40;;;17.70;;
41705;SDS011;27385;51.096;17.190;2023-03-20T08:05:52;34.10;;;16.00;;
41705;SDS011;27385;51.096;17.190;2023-03-20T08:08:23;27.20;;;14.30;;
41705;SDS011;27385;51.096;17.190;2023-03-20T08:10:55;27.70;;;13.70;;
41705;SDS011;27385;51.096;17.190;2023-03-20T08:13:26;33.50;;;16.90;;
41705;SDS011;27385;51.096;17.190;2023-03-20T08:15:57;32.20;;;16.30;;
41705;SDS011;27385;51.096;17.190;2023-03-20T08:18:29;50.80;;;25.80;;
41705;SDS011;27385;51.096;17.190;2023-03-20T08:21:00;43.20;;;22.20;;
41705;SDS011;27385;51.096;17.190;2023-03-20T08:23:31;41.20;;;21.20;;
41705;SDS011;27385;51.096;17.190;2023-03-20T08:26:03;48.80;;;25.90;;
41705;SDS011;27385;51.096;17.190;2023-03-20T08:28:34;43.90;;;22.80;;
41705;SDS011;27385;51.096;17.190;2023-03-20T08:31:07;47.70;;;25.10;;
41705;SDS011;27385;51.096;17.190;2023-03-20T08:33:38;34.20;;;16.80;;
41705;SDS011;27385;51.096;17.190;2023-03-20T08:36:12;37.90;;;19.90;;
41705;SDS011;27385;51.096;17.190;2023-03-20T08:38:47;36.20;;;18.80;;
41705;SDS011;27385;51.096;17.190;2023-03-20T08:41:19;40.10;;;19.80;;
41705;SDS011;27385;51.096;17.190;2023-03-20T08:43:50;40.50;;;28.20;;
41705;SDS011;27385;51.096;17.190;2023-03-20T08:46:21;36.60;;;24.40;;
41705;SDS011;27385;51.096;17.190;2023-03-20T08:48:53;38.00;;;25.60;;
41705;SDS011;27385;51.096;17.190;2023-03-20T08:51:25;37.60;;;21.20;;
41705;SDS011;27385;51.096;17.190;2023-03-20T08:53:57;33.10;;;19.00;;
41705;SDS011;27385;51.096;17.190;2023-03-20T08:56:28;34.70;;;19.40;;
41705;SDS011;27385;51.096;17.190;2023-03-20T08:58:59;33.70;;;19.50;;
41705;SDS011;27385;51.096;17.190;2023-03-20T09:01:30;31.40;;;18.30;;
41705;SDS011;27385;51.096;17.190;2023-03-20T09:04:01;32.70;;;18.00;;
41705;SDS011;27385;51.096;17.190;2023-03-20T09:06:36;34.20;;;19.80;;
41705;SDS011;27385;51.096;17.190;2023-03-20T09:09:07;36.90;;;17.90;;
41705;SDS011;27385;51.096;17.190;2023-03-20T09:11:38;30.20;;;16.60;;
41705;SDS011;27385;51.096;17.190;2023-03-20T09:14:09;34.30;;;16.80;;
41705;SDS011;27385;51.096;17.190;2023-03-20T09:16:42;36.30;;;19.70;;
41705;SDS011;27385;51.096;17.190;2023-03-20T09:19:14;33.80;;;16.60;;
41705;SDS011;27385;51.096;17.190;2023-03-20T09:21:46;29.50;;;16.00;;
41705;SDS011;27385;51.096;17.190;2023-03-20T09:24:17;30.80;;;15.80;;
41705;SDS011;27385;51.096;17.190;2023-03-20T09:26:48;28.70;;;14.90;;
41705;SDS011;27385;51.096;17.190;2023-03-20T09:29:19;32.70;;;17.70;;
41705;SDS011;27385;51.096;17.190;2023-03-20T09:31:51;30.00;;;15.30;;
41705;SDS011;27385;51.096;17.190;2023-03-20T09:34:22;29.60;;;15.20;;
41705;SDS011;27385;51.096;17.190;2023-03-20T09:36:53;30.00;;;16.00;;
41705;SDS011;27385;51.096;17.190;2023-03-20T09:39:25;36.10;;;21.70;;
41705;SDS011;27385;51.096;17.190;2023-03-20T09:41:57;32.50;;;18.60;;
41705;SDS011;27385;51.096;17.190;2023-03-20T09:44:39;33.50;;;18.20;;
41705;SDS011;27385;51.096;17.190;2023-03-20T09:47:20;31.80;;;17.20;;
41705;SDS011;27385;51.096;17.190;2023-03-20T09:50:00;43.20;;;28.70;;
41705;SDS011;27385;51.096;17.190;2023-03-20T09:52:42;31.00;;;17.30;;
41705;SDS011;27385;51.096;17.190;2023-03-20T09:55:22;28.50;;;15.40;;
41705;SDS011;27385;51.096;17.190;2023-03-20T09:58:02;24.70;;;12.20;;
41705;SDS011;27385;51.096;17.190;2023-03-20T10:00:38;28.00;;;14.50;;
41705;SDS011;27385;51.096;17.190;2023-03-20T10:03:16;28.70;;;13.10;;
41705;SDS011;27385;51.096;17.190;2023-03-20T10:05:50;24.80;;;11.00;;
41705;SDS011;27385;51.096;17.190;2023-03-20T10:08:26;28.70;;;13.30;;
41705;SDS011;27385;51.096;17.190;2023-03-20T10:11:09;22.50;;;11.40;;
41705;SDS011;27385;51.096;17.190;2023-03-20T10:14:31;30.60;;;11.70;;
41705;SDS011;27385;51.096;17.190;2023-03-20T10:20:11;24.90;;;11.90;;
41705;SDS011;27385;51.096;17.190;2023-03-20T10:22:50;21.40;;;11.00;;
41705;SDS011;27385;51.096;17.190;2023-03-20T10:25:27;26.90;;;11.60;;
41705;SDS011;27385;51.096;17.190;2023-03-20T10:28:00;23.10;;;10.20;;
41705;SDS011;27385;51.096;17.190;2023-03-20T10:30:40;23.70;;;11.40;;
41705;SDS011;27385;51.096;17.190;2023-03-20T10:33:29;24.90;;;12.10;;
41705;SDS011;27385;51.096;17.190;2023-03-20T10:36:12;23.00;;;10.20;;
41705;SDS011;27385;51.096;17.190;2023-03-20T10:38:54;23.90;;;10.20;;
41705;SDS011;27385;51.096;17.190;2023-03-20T10:41:34;19.80;;;9.80;;
41705;SDS011;27385;51.096;17.190;2023-03-20T10:44:10;23.30;;;10.10;;
41705;SDS011;27385;51.096;17.190;2023-03-20T10:46:50;26.00;;;10.30;;
41705;SDS011;27385;51.096;17.190;2023-03-20T10:49:26;21.40;;;9.30;;
41705;SDS011;27385;51.096;17.190;2023-03-20T10:52:06;20.50;;;9.80;;
41705;SDS011;27385;51.096;17.190;2023-03-20T10:54:42;19.30;;;9.10;;
41705;SDS011;27385;51.096;17.190;2023-03-20T10:57:19;23.20;;;9.50;;
41705;SDS011;27385;51.096;17.190;2023-03-20T10:59:53;20.40;;;8.70;;
41705;SDS011;27385;51.096;17.190;2023-03-20T11:02:28;19.90;;;9.00;;
41705;SDS011;27385;51.096;17.190;2023-03-20T11:05:00;18.80;;;9.10;;
41705;SDS011;27385;51.096;17.190;2023-03-20T11:07:38;17.20;;;7.60;;
41705;SDS011;27385;51.096;17.190;2023-03-20T11:10:12;21.60;;;9.70;;
41705;SDS011;27385;51.096;17.190;2023-03-20T11:12:47;18.20;;;7.70;;
41705;SDS011;27385;51.096;17.190;2023-03-20T11:15:23;17.10;;;8.10;;
41705;SDS011;27385;51.096;17.190;2023-03-20T11:17:57;16.60;;;7.80;;
41705;SDS011;27385;51.096;17.190;2023-03-20T11:20:32;15.60;;;7.00;;
41705;SDS011;27385;51.096;17.190;2023-03-20T11:23:06;16.60;;;6.60;;
41705;SDS011;27385;51.096;17.190;2023-03-20T11:25:48;18.40;;;6.90;;
41705;SDS011;27385;51.096;17.190;2023-03-20T11:28:26;18.60;;;7.20;;
41705;SDS011;27385;51.096;17.190;2023-03-20T11:31:01;16.30;;;7.20;;
41705;SDS011;27385;51.096;17.190;2023-03-20T11:33:37;17.90;;;7.70;;
41705;SDS011;27385;51.096;17.190;2023-03-20T11:36:11;17.30;;;7.70;;
41705;SDS011;27385;51.096;17.190;2023-03-20T11:38:52;16.90;;;7.80;;
41705;SDS011;27385;51.096;17.190;2023-03-20T11:41:27;15.70;;;6.80;;
41705;SDS011;27385;51.096;17.190;2023-03-20T11:43:59;13.60;;;6.10;;
41705;SDS011;27385;51.096;17.190;2023-03-20T11:46:30;15.50;;;7.30;;
41705;SDS011;27385;51.096;17.190;2023-03-20T11:49:05;14.90;;;7.10;;
41705;SDS011;27385;51.096;17.190;2023-03-20T11:56:54;17.50;;;8.10;;
41705;SDS011;27385;51.096;17.190;2023-03-20T11:59:28;17.10;;;7.50;;
41705;SDS011;27385;51.096;17.190;2023-03-20T12:02:02;14.30;;;7.70;;
41705;SDS011;27385;51.096;17.190;2023-03-20T12:04:46;16.50;;;8.00;;
41705;SDS011;27385;51.096;17.190;2023-03-20T12:07:18;28.10;;;14.30;;
41705;SDS011;27385;51.096;17.190;2023-03-20T12:09:53;16.60;;;8.60;;
41705;SDS011;27385;51.096;17.190;2023-03-20T12:12:32;14.30;;;7.00;;
41705;SDS011;27385;51.096;17.190;2023-03-20T12:15:09;13.60;;;6.70;;
41705;SDS011;27385;51.096;17.190;2023-03-20T12:17:51;17.50;;;8.50;;
41705;SDS011;27385;51.096;17.190;2023-03-20T12:20:31;22.10;;;8.50;;
41705;SDS011;27385;51.096;17.190;2023-03-20T12:23:09;17.00;;;7.70;;
41705;SDS011;27385;51.096;17.190;2023-03-20T12:25:46;16.90;;;8.60;;
41705;SDS011;27385;51.096;17.190;2023-03-20T12:28:23;18.80;;;8.30;;
41705;SDS011;27385;51.096;17.190;2023-03-20T12:31:04;19.40;;;8.50;;
41705;SDS011;27385;51.096;17.190;2023-03-20T12:33:46;16.10;;;8.10;;
41705;SDS011;27385;51.096;17.190;2023-03-20T12:36:23;16.60;;;9.40;;
41705;SDS011;27385;51.096;17.190;2023-03-20T12:38:57;14.60;;;8.20;;
41705;SDS011;27385;51.096;17.190;2023-03-20T12:41:32;16.60;;;8.60;;
41705;SDS011;27385;51.096;17.190;2023-03-20T12:47:10;19.90;;;9.90;;
41705;SDS011;27385;51.096;17.190;2023-03-20T12:49:53;18.40;;;9.80;;
41705;SDS011;27385;51.096;17.190;2023-03-20T12:52:31;19.70;;;10.80;;
41705;SDS011;27385;51.096;17.190;2023-03-20T12:55:11;17.80;;;9.30;;
41705;SDS011;27385;51.096;17.190;2023-03-20T12:57:59;17.90;;;11.00;;
41705;SDS011;27385;51.096;17.190;2023-03-20T13:00:40;19.80;;;9.70;;
41705;SDS011;27385;51.096;17.190;2023-03-20T13:03:23;18.70;;;9.30;;
41705;SDS011;27385;51.096;17.190;2023-03-20T13:06:03;17.90;;;10.10;;
41705;SDS011;27385;51.096;17.190;2023-03-20T13:08:54;17.10;;;9.50;;
41705;SDS011;27385;51.096;17.190;2023-03-20T13:11:37;18.70;;;10.50;;
41705;SDS011;27385;51.096;17.190;2023-03-20T13:14:15;20.80;;;12.10;;
41705;SDS011;27385;51.096;17.190;2023-03-20T13:16:56;22.20;;;12.30;;
41705;SDS011;27385;51.096;17.190;2023-03-20T13:19:35;22.20;;;12.40;;
41705;SDS011;27385;51.096;17.190;2023-03-20T13:22:14;22.80;;;13.20;;
41705;SDS011;27385;51.096;17.190;2023-03-20T13:24:53;22.90;;;13.10;;
41705;SDS011;27385;51.096;17.190;2023-03-20T13:27:32;22.20;;;12.30;;
41705;SDS011;27385;51.096;17.190;2023-03-20T13:30:10;20.90;;;12.60;;
41705;SDS011;27385;51.096;17.190;2023-03-20T13:32:49;19.60;;;12.30;;
41705;SDS011;27385;51.096;17.190;2023-03-20T13:35:44;19.60;;;12.40;;
41705;SDS011;27385;51.096;17.190;2023-03-20T13:38:23;22.60;;;13.60;;
41705;SDS011;27385;51.096;17.190;2023-03-20T13:41:01;19.60;;;10.90;;
41705;SDS011;27385;51.096;17.190;2023-03-20T13:43:37;18.60;;;9.60;;
41705;SDS011;27385;51.096;17.190;2023-03-20T13:46:11;18.50;;;7.70;;
41705;SDS011;27385;51.096;17.190;2023-03-20T13:48:46;15.60;;;6.70;;
41705;SDS011;27385;51.096;17.190;2023-03-20T13:51:22;17.50;;;8.40;;
41705;SDS011;27385;51.096;17.190;2023-03-20T13:54:02;13.50;;;6.80;;
41705;SDS011;27385;51.096;17.190;2023-03-20T13:56:47;9.80;;;3.90;;
41705;SDS011;27385;51.096;17.190;2023-03-20T14:02:39;6.20;;;2.30;;
41705;SDS011;27385;51.096;17.190;2023-03-20T14:05:33;8.10;;;2.00;;
41705;SDS011;27385;51.096;17.190;2023-03-20T14:11:11;6.20;;;1.30;;
41705;SDS011;27385;51.096;17.190;2023-03-20T14:14:02;8.40;;;1.30;;
41705;SDS011;27385;51.096;17.190;2023-03-20T14:16:36;5.60;;;1.00;;
41705;SDS011;27385;51.096;17.190;2023-03-20T14:19:08;5.20;;;1.40;;
41705;SDS011;27385;51.096;17.190;2023-03-20T14:21:48;6.20;;;1.40;;
41705;SDS011;27385;51.096;17.190;2023-03-20T14:24:22;8.00;;;1.50;;
41705;SDS011;27385;51.096;17.190;2023-03-20T14:26:55;7.60;;;2.10;;
41705;SDS011;27385;51.096;17.190;2023-03-20T14:29:35;9.80;;;2.30;;
41705;SDS011;27385;51.096;17.190;2023-03-20T14:32:28;8.20;;;2.70;;
41705;SDS011;27385;51.096;17.190;2023-03-20T14:35:21;6.70;;;2.40;;
41705;SDS011;27385;51.096;17.190;2023-03-20T14:38:06;7.60;;;2.70;;
41705;SDS011;27385;51.096;17.190;2023-03-20T14:40:46;8.70;;;3.30;;
41705;SDS011;27385;51.096;17.190;2023-03-20T14:43:29;9.90;;;3.70;;
41705;SDS011;27385;51.096;17.190;2023-03-20T14:46:16;11.10;;;3.60;;
41705;SDS011;27385;51.096;17.190;2023-03-20T14:48:54;12.80;;;5.20;;
41705;SDS011;27385;51.096;17.190;2023-03-20T14:51:32;13.40;;;5.10;;
41705;SDS011;27385;51.096;17.190;2023-03-20T14:54:26;16.20;;;6.50;;
41705;SDS011;27385;51.096;17.190;2023-03-20T14:57:09;9.60;;;3.80;;
41705;SDS011;27385;51.096;17.190;2023-03-20T14:59:48;11.20;;;4.40;;
41705;SDS011;27385;51.096;17.190;2023-03-20T15:02:24;8.40;;;3.50;;
41705;SDS011;27385;51.096;17.190;2023-03-20T15:04:58;6.60;;;2.20;;
41705;SDS011;27385;51.096;17.190;2023-03-20T15:07:29;9.80;;;2.80;;
41705;SDS011;27385;51.096;17.190;2023-03-20T15:10:06;9.10;;;3.40;;
41705;SDS011;27385;51.096;17.190;2023-03-20T15:12:37;8.40;;;3.40;;
41705;SDS011;27385;51.096;17.190;2023-03-20T15:15:22;7.30;;;2.90;;
41705;SDS011;27385;51.096;17.190;2023-03-20T15:17:55;9.80;;;3.60;;
41705;SDS011;27385;51.096;17.190;2023-03-20T15:20:34;10.30;;;3.60;;
41705;SDS011;27385;51.096;17.190;2023-03-20T15:23:05;10.30;;;3.20;;
41705;SDS011;27385;51.096;17.190;2023-03-20T15:25:38;10.80;;;3.70;;
41705;SDS011;27385;51.096;17.190;2023-03-20T15:28:13;12.10;;;3.40;;
41705;SDS011;27385;51.096;17.190;2023-03-20T15:30:47;8.20;;;1.90;;